createdAt,value
2022-08-28T00:04:21.764Z,98
2022-08-28T00:09:19.858Z,98
2022-08-28T00:24:17.573Z,98
2022-08-28T00:29:17.239Z,98
2022-08-28T00:34:17.403Z,98
2022-08-28T00:39:19.522Z,97
2022-08-28T01:13:27.104Z,98
2022-08-28T01:18:26.746Z,98
2022-08-28T01:23:26.792Z,98
2022-08-28T01:28:25.794Z,98
2022-08-28T01:33:28.669Z,98
2022-08-28T01:38:27.836Z,98
2022-08-28T01:43:21.851Z,98
2022-08-28T01:48:21.336Z,97
2022-08-28T01:53:25.417Z,98
2022-08-28T01:58:20.843Z,98
2022-08-28T01:59:42.863Z,97
2022-08-28T02:04:47.549Z,98
2022-08-28T02:09:40.646Z,98
2022-08-28T02:14:39.452Z,98
2022-08-28T02:19:38.131Z,98
2022-08-28T02:24:37.908Z,98
2022-08-28T02:29:36.531Z,98
2022-08-28T02:34:36.195Z,98
2022-08-28T02:39:35.794Z,98
2022-08-28T02:44:35.760Z,98
2022-08-28T02:49:37.139Z,98
2022-08-28T02:54:34.052Z,98
2022-08-28T02:58:57.112Z,98
2022-08-28T03:03:53.343Z,98
2022-08-28T03:08:52.500Z,99
2022-08-28T03:13:51.930Z,99
2022-08-28T03:18:51.567Z,99
2022-08-28T03:23:51.243Z,99
2022-08-28T03:28:50.247Z,99
2022-08-28T03:33:49.735Z,99
2022-08-28T03:38:49.503Z,99
2022-08-28T03:43:46.554Z,99
2022-08-28T03:48:45.822Z,99
2022-08-28T03:53:44.951Z,99
2022-08-28T03:58:44.521Z,99
2022-08-28T04:03:44.420Z,99
2022-08-28T04:08:44.001Z,99
2022-08-28T04:13:44.654Z,99
2022-08-28T04:18:42.114Z,99
2022-08-28T04:23:42.484Z,99
2022-08-28T04:28:39.174Z,99
2022-08-28T04:33:38.212Z,99
2022-08-28T04:38:43.621Z,99
2022-08-28T04:43:37.018Z,99
2022-08-28T04:48:37.067Z,99
2022-08-28T04:53:36.272Z,99
2022-08-28T04:58:35.878Z,99
2022-08-28T05:03:34.953Z,99
2022-08-28T05:08:33.136Z,99
2022-08-28T05:13:33.558Z,99
2022-08-28T05:18:32.692Z,99
2022-08-28T05:23:32.714Z,99
2022-08-28T05:28:32.211Z,99
2022-08-28T05:33:31.927Z,99
2022-08-28T05:38:31.581Z,99
2022-08-28T05:43:30.064Z,99
2022-08-28T05:48:34.865Z,99
2022-08-28T05:53:27.918Z,99
2022-08-28T05:58:27.339Z,99
2022-08-28T05:59:48.891Z,99
2022-08-28T06:04:48.860Z,99
2022-08-28T06:09:48.328Z,98
2022-08-28T06:14:48.229Z,98
2022-08-28T06:19:47.160Z,98
2022-08-28T06:24:46.287Z,97
2022-08-28T06:29:44.680Z,96
2022-08-28T06:34:43.973Z,95
2022-08-28T06:39:43.368Z,94
2022-08-28T06:44:43.211Z,94
2022-08-28T06:49:42.737Z,93
2022-08-28T06:54:56.292Z,92
2022-08-28T06:59:17.600Z,92
2022-08-28T07:04:17.621Z,90
2022-08-28T07:09:15.586Z,89
2022-08-28T07:14:15.408Z,88
2022-08-28T07:19:15.009Z,87
2022-08-28T07:24:14.362Z,86
2022-08-28T07:29:26.828Z,85
2022-08-28T07:34:05.885Z,84
2022-08-28T07:39:05.075Z,84
2022-08-28T07:44:03.517Z,83
2022-08-28T07:49:02.814Z,82
2022-08-28T07:54:01.985Z,82
2022-08-28T07:58:50.587Z,81
2022-08-28T08:03:58.341Z,80
2022-08-28T08:08:49.784Z,81
2022-08-28T08:13:51.576Z,80
2022-08-28T08:18:49.307Z,79
2022-08-28T08:23:49.479Z,79
2022-08-28T08:28:46.423Z,79
2022-08-28T08:33:45.568Z,79
2022-08-28T08:38:45.884Z,79
2022-08-28T08:43:44.993Z,79
2022-08-28T08:48:44.396Z,78
2022-08-28T08:53:44.319Z,77
2022-08-28T08:58:44.668Z,76
2022-08-28T09:03:44.918Z,74
2022-08-28T09:08:43.359Z,76
2022-08-28T09:13:40.483Z,75
2022-08-28T09:18:39.635Z,75
2022-08-28T09:23:38.821Z,75
2022-08-28T09:28:38.910Z,72
2022-08-28T09:33:41.733Z,70
2022-08-28T09:38:39.001Z,71
2022-08-28T09:43:37.690Z,70
2022-08-28T09:48:36.650Z,69
2022-08-28T09:53:36.988Z,69
2022-08-28T09:58:34.484Z,68
2022-08-28T09:59:56.474Z,66
2022-08-28T10:04:55.980Z,65
2022-08-28T10:09:55.632Z,65
2022-08-28T10:14:55.434Z,67
2022-08-28T10:19:54.316Z,63
2022-08-28T10:24:53.620Z,62
2022-08-28T10:29:52.808Z,61
2022-08-28T10:34:50.697Z,64
2022-08-28T10:39:49.850Z,62
2022-08-28T10:44:48.648Z,63
2022-08-28T10:49:47.973Z,64
2022-08-28T10:54:47.796Z,62
2022-08-28T10:58:56.638Z,60
2022-08-28T11:03:56.979Z,61
2022-08-28T11:09:17.040Z,61
2022-08-28T11:13:55.524Z,61
2022-08-28T11:18:54.123Z,57
2022-08-28T11:28:53.916Z,58
2022-08-28T11:33:53.092Z,56
2022-08-28T11:38:52.330Z,56
2022-08-28T11:43:50.861Z,55
2022-08-28T11:48:49.997Z,55
2022-08-28T11:53:49.153Z,56
2022-08-28T11:58:49.786Z,57
2022-08-28T12:03:48.512Z,55
2022-08-28T12:08:48.317Z,54
2022-08-28T12:13:48.043Z,54
2022-08-28T12:18:47.530Z,53
2022-08-28T12:23:46.332Z,54
2022-08-28T12:28:45.303Z,53
2022-08-28T12:33:44.514Z,54
2022-08-28T12:38:43.659Z,54
2022-08-28T12:43:47.394Z,54
2022-08-28T12:48:43.032Z,53
2022-08-28T12:53:42.614Z,52
2022-08-28T12:58:42.152Z,52
2022-08-28T13:03:40.775Z,52
2022-08-28T13:08:40.093Z,52
2022-08-28T13:13:38.152Z,48
2022-08-28T13:18:37.623Z,48
2022-08-28T13:23:36.436Z,50
2022-08-28T13:28:36.340Z,49
2022-08-28T13:33:35.808Z,50
2022-08-28T13:38:35.389Z,49
2022-08-28T13:43:34.243Z,48
2022-08-28T13:48:33.478Z,50
2022-08-28T13:53:33.372Z,51
2022-08-28T13:58:30.295Z,51
2022-08-28T13:59:55.985Z,51
2022-08-28T14:04:51.038Z,52
2022-08-28T14:09:56.492Z,52
2022-08-28T14:14:49.885Z,52
2022-08-28T14:19:49.454Z,50
2022-08-28T14:24:49.599Z,49
2022-08-28T14:29:48.232Z,49
2022-08-28T14:34:48.759Z,48
2022-08-28T14:39:45.104Z,47
2022-08-28T14:44:44.083Z,48
2022-08-28T14:49:44.171Z,47
2022-08-28T14:54:43.239Z,49
2022-08-28T14:59:04.075Z,50
2022-08-28T15:04:03.894Z,52
2022-08-28T15:09:02.578Z,52
2022-08-28T15:14:01.521Z,52
2022-08-28T15:19:00.087Z,49
2022-08-28T15:23:59.479Z,47
2022-08-28T15:28:58.392Z,48
2022-08-28T15:33:58.057Z,48
2022-08-28T15:38:58.670Z,49
2022-08-28T15:43:57.387Z,49
2022-08-28T15:48:57.235Z,48
2022-08-28T15:53:55.978Z,48
2022-08-28T15:58:18.294Z,47
2022-08-28T16:03:18.435Z,47
2022-08-28T16:08:15.932Z,47
2022-08-28T16:13:15.430Z,48
2022-08-28T16:18:14.521Z,47
2022-08-28T16:23:13.299Z,50
2022-08-28T16:28:20.434Z,50
2022-08-28T16:33:19.773Z,48
2022-08-28T16:38:19.970Z,48
2022-08-28T16:43:17.300Z,47
2022-08-28T16:48:16.772Z,47
2022-08-28T16:53:27.024Z,47
2022-08-28T16:58:17.762Z,47
2022-08-28T16:59:37.992Z,47
2022-08-28T17:04:36.491Z,47
2022-08-28T17:09:35.732Z,48
2022-08-28T17:14:34.057Z,49
2022-08-28T17:19:33.033Z,49
2022-08-28T17:24:32.447Z,49
2022-08-28T17:29:31.590Z,50
2022-08-28T17:34:31.332Z,50
2022-08-28T17:39:30.093Z,48
2022-08-28T17:44:29.916Z,50
2022-08-28T17:49:28.471Z,51
2022-08-28T17:54:27.512Z,52
2022-08-28T17:58:44.658Z,53
2022-08-28T18:00:06.320Z,54
2022-08-28T18:05:04.700Z,55
2022-08-28T18:10:04.513Z,56
2022-08-28T18:15:03.640Z,58
2022-08-28T18:20:03.234Z,59
2022-08-28T18:25:01.949Z,59
2022-08-28T18:30:01.836Z,59
2022-08-28T18:35:00.956Z,61
2022-08-28T18:39:58.442Z,61
2022-08-28T18:44:56.685Z,62
2022-08-28T18:49:55.832Z,62
2022-08-28T18:55:01.370Z,65
2022-08-28T18:58:55.934Z,66
2022-08-28T19:03:55.645Z,67
2022-08-28T19:08:55.220Z,69
2022-08-28T19:13:54.438Z,69
2022-08-28T19:18:53.978Z,71
2022-08-28T19:23:56.432Z,73
2022-08-28T19:28:50.036Z,74
2022-08-28T19:33:49.362Z,75
2022-08-28T19:38:48.290Z,75
2022-08-28T19:43:48.142Z,76
2022-08-28T19:48:48.329Z,77
2022-08-28T19:53:47.134Z,77
2022-08-28T19:58:46.021Z,79
2022-08-28T20:00:15.564Z,79
2022-08-28T20:05:14.979Z,80
2022-08-28T20:10:14.175Z,81
2022-08-28T20:15:16.618Z,81
2022-08-28T20:20:05.559Z,82
2022-08-28T20:25:05.488Z,82
2022-08-28T20:30:11.678Z,82
2022-08-28T20:35:04.864Z,83
2022-08-28T20:40:04.474Z,84
2022-08-28T20:45:00.483Z,84
2022-08-28T20:49:59.775Z,84
2022-08-28T20:54:59.069Z,85
2022-08-28T20:59:19.936Z,85
2022-08-28T21:04:19.716Z,85
2022-08-28T21:09:18.567Z,86
2022-08-28T21:14:18.267Z,86
2022-08-28T21:19:17.231Z,87
2022-08-28T21:24:14.966Z,87
2022-08-28T21:29:15.284Z,88
2022-08-28T21:34:13.651Z,88
2022-08-28T21:39:13.293Z,88
2022-08-28T21:44:13.195Z,89
2022-08-28T21:49:19.492Z,89
2022-08-28T21:54:19.743Z,90
2022-08-28T21:59:00.973Z,90
2022-08-28T22:04:00.554Z,91
2022-08-28T22:08:58.878Z,91
2022-08-28T22:13:58.598Z,91
2022-08-28T22:18:57.729Z,91
2022-08-28T22:23:57.574Z,92
2022-08-28T22:28:56.387Z,92
2022-08-28T22:33:55.717Z,92
2022-08-28T22:38:55.500Z,92
2022-08-28T22:43:52.721Z,92
2022-08-28T22:48:52.184Z,92
2022-08-28T22:53:52.032Z,92
2022-08-28T22:58:51.158Z,92
2022-08-28T23:03:50.980Z,92
2022-08-28T23:08:50.435Z,92
2022-08-28T23:13:49.437Z,92
2022-08-28T23:19:08.982Z,91
2022-08-28T23:23:46.138Z,91
2022-08-28T23:28:45.091Z,91
2022-08-28T23:33:44.794Z,91
2022-08-28T23:38:43.823Z,91
2022-08-28T23:43:43.324Z,91
2022-08-28T23:48:42.805Z,92
2022-08-28T23:53:43.032Z,91
2022-08-28T23:58:44.903Z,91
